KAUS

Austin-Bergstrom International Airport

Airport
ICAO code
KAUS
Summary
ICAO Region
NAM
ICAO Territory
Location

Austin, Texas,

Coordinates
30° 12' 9" N , 97° 40' 5" W
KCC
Cfa
Airport LOS
Parallel Runway Operation
Airport WX
Cumulonimbus
Metar
Observation
KAUS 081953Z 12005KT 10SM SCT060 SCT300 36/19 A3001 RMK AO2 SLP148 T03610194
Station
Austin, Austin-Bergstrom International Airport
Date/Time
2022-08-08 19:53:00
Wind direction
120°
Wind speed
05 kts
Lowest cloud amount
scattered clouds
Temperature
36.1°C
Dew point
19.4°C
Humidity
37%
Weather condition
n/a

Description

Austin-Bergstrom International Airport is a public use airport located 8 km southeast of the central business district of Austin, in Travis County, Texas.

Climatology

Humid “subtropical” climate (Köppen climate classification Cfa) - characterized by hot, humid summers and cool winters. Significant amounts of precipitation occur in all seasons in most areas. Winter rainfall (and sometimes snowfall) is associated with large storms that the westerlies steer from west to east. Most summer rainfall occurs during thunderstorms and occasional tropical storms (hurricanes).

Airport map

Aerial View

SKYbrary Partners:

Safety knowledge contributed by: